sensor_id;sensor_type;location;lat;lon;timestamp;P1;durP1;ratioP1;P2;durP2;ratioP2
68523;SDS011;55524;51.380;13.372;2023-04-24T00:01:29;6.63;;;5.25;;
68523;SDS011;55524;51.380;13.372;2023-04-24T00:03:56;6.00;;;5.35;;
68523;SDS011;55524;51.380;13.372;2023-04-24T00:06:25;5.30;;;4.90;;
68523;SDS011;55524;51.380;13.372;2023-04-24T00:08:58;6.25;;;5.28;;
68523;SDS011;55524;51.380;13.372;2023-04-24T00:11:26;6.57;;;5.63;;
68523;SDS011;55524;51.380;13.372;2023-04-24T00:13:52;6.72;;;6.13;;
68523;SDS011;55524;51.380;13.372;2023-04-24T00:16:19;8.05;;;5.35;;
68523;SDS011;55524;51.380;13.372;2023-04-24T00:18:45;7.85;;;5.60;;
68523;SDS011;55524;51.380;13.372;2023-04-24T00:21:13;6.60;;;5.40;;
68523;SDS011;55524;51.380;13.372;2023-04-24T00:23:41;9.90;;;6.18;;
68523;SDS011;55524;51.380;13.372;2023-04-24T00:26:07;7.22;;;5.93;;
68523;SDS011;55524;51.380;13.372;2023-04-24T00:28:33;6.70;;;6.00;;
68523;SDS011;55524;51.380;13.372;2023-04-24T00:30:59;10.63;;;6.10;;
68523;SDS011;55524;51.380;13.372;2023-04-24T00:33:26;7.22;;;5.38;;
68523;SDS011;55524;51.380;13.372;2023-04-24T00:35:52;7.25;;;6.30;;
68523;SDS011;55524;51.380;13.372;2023-04-24T00:38:19;6.32;;;5.72;;
68523;SDS011;55524;51.380;13.372;2023-04-24T00:40:45;7.32;;;5.80;;
68523;SDS011;55524;51.380;13.372;2023-04-24T00:43:12;6.07;;;5.10;;
68523;SDS011;55524;51.380;13.372;2023-04-24T00:45:39;7.05;;;5.40;;
68523;SDS011;55524;51.380;13.372;2023-04-24T00:48:05;6.68;;;5.55;;
68523;SDS011;55524;51.380;13.372;2023-04-24T00:50:32;9.68;;;6.63;;
68523;SDS011;55524;51.380;13.372;2023-04-24T00:53:00;9.05;;;6.82;;
68523;SDS011;55524;51.380;13.372;2023-04-24T00:55:27;12.88;;;7.03;;
68523;SDS011;55524;51.380;13.372;2023-04-24T00:57:54;8.10;;;6.90;;
68523;SDS011;55524;51.380;13.372;2023-04-24T01:00:20;8.35;;;7.47;;
68523;SDS011;55524;51.380;13.372;2023-04-24T01:02:47;10.82;;;7.07;;
68523;SDS011;55524;51.380;13.372;2023-04-24T01:05:15;11.68;;;7.72;;
68523;SDS011;55524;51.380;13.372;2023-04-24T01:07:43;9.40;;;7.38;;
68523;SDS011;55524;51.380;13.372;2023-04-24T01:10:11;8.25;;;7.38;;
68523;SDS011;55524;51.380;13.372;2023-04-24T01:12:39;10.93;;;7.53;;
68523;SDS011;55524;51.380;13.372;2023-04-24T01:15:05;7.57;;;6.38;;
68523;SDS011;55524;51.380;13.372;2023-04-24T01:17:32;8.27;;;6.60;;
68523;SDS011;55524;51.380;13.372;2023-04-24T01:19:59;9.77;;;7.28;;
68523;SDS011;55524;51.380;13.372;2023-04-24T01:22:26;7.20;;;6.35;;
68523;SDS011;55524;51.380;13.372;2023-04-24T01:24:53;10.25;;;6.85;;
68523;SDS011;55524;51.380;13.372;2023-04-24T01:27:19;8.80;;;6.70;;
68523;SDS011;55524;51.380;13.372;2023-04-24T01:29:46;6.70;;;5.97;;
68523;SDS011;55524;51.380;13.372;2023-04-24T01:32:14;9.18;;;6.40;;
68523;SDS011;55524;51.380;13.372;2023-04-24T01:34:40;12.30;;;6.63;;
68523;SDS011;55524;51.380;13.372;2023-04-24T01:37:07;7.50;;;5.85;;
68523;SDS011;55524;51.380;13.372;2023-04-24T01:39:34;7.32;;;6.13;;
68523;SDS011;55524;51.380;13.372;2023-04-24T01:42:01;7.68;;;5.65;;
68523;SDS011;55524;51.380;13.372;2023-04-24T01:44:27;7.32;;;5.70;;
68523;SDS011;55524;51.380;13.372;2023-04-24T01:46:54;9.07;;;6.70;;
68523;SDS011;55524;51.380;13.372;2023-04-24T01:49:20;8.43;;;6.45;;
68523;SDS011;55524;51.380;13.372;2023-04-24T01:51:47;7.65;;;6.60;;
68523;SDS011;55524;51.380;13.372;2023-04-24T01:54:13;7.63;;;6.28;;
68523;SDS011;55524;51.380;13.372;2023-04-24T01:56:40;6.90;;;5.60;;
68523;SDS011;55524;51.380;13.372;2023-04-24T01:59:10;6.15;;;4.95;;
68523;SDS011;55524;51.380;13.372;2023-04-24T02:01:37;4.60;;;4.20;;
68523;SDS011;55524;51.380;13.372;2023-04-24T02:04:05;3.92;;;3.60;;
68523;SDS011;55524;51.380;13.372;2023-04-24T02:06:31;4.00;;;3.38;;
68523;SDS011;55524;51.380;13.372;2023-04-24T02:08:58;3.50;;;3.20;;
68523;SDS011;55524;51.380;13.372;2023-04-24T02:11:25;3.17;;;2.75;;
68523;SDS011;55524;51.380;13.372;2023-04-24T02:13:51;3.88;;;3.50;;
68523;SDS011;55524;51.380;13.372;2023-04-24T02:16:18;4.05;;;3.10;;
68523;SDS011;55524;51.380;13.372;2023-04-24T02:18:44;3.95;;;2.95;;
68523;SDS011;55524;51.380;13.372;2023-04-24T02:21:10;4.18;;;3.33;;
68523;SDS011;55524;51.380;13.372;2023-04-24T02:23:37;4.03;;;3.40;;
68523;SDS011;55524;51.380;13.372;2023-04-24T02:26:03;3.42;;;3.13;;
68523;SDS011;55524;51.380;13.372;2023-04-24T02:28:29;4.18;;;3.15;;
68523;SDS011;55524;51.380;13.372;2023-04-24T02:30:56;3.15;;;2.85;;
68523;SDS011;55524;51.380;13.372;2023-04-24T02:33:22;3.95;;;2.85;;
68523;SDS011;55524;51.380;13.372;2023-04-24T02:35:48;2.80;;;2.60;;
68523;SDS011;55524;51.380;13.372;2023-04-24T02:38:14;2.92;;;2.72;;
68523;SDS011;55524;51.380;13.372;2023-04-24T02:40:41;2.60;;;2.40;;
68523;SDS011;55524;51.380;13.372;2023-04-24T02:43:07;2.20;;;2.00;;
68523;SDS011;55524;51.380;13.372;2023-04-24T02:45:33;2.05;;;1.88;;
68523;SDS011;55524;51.380;13.372;2023-04-24T02:47:59;2.30;;;2.10;;
68523;SDS011;55524;51.380;13.372;2023-04-24T02:50:26;2.10;;;1.90;;
68523;SDS011;55524;51.380;13.372;2023-04-24T02:52:52;1.73;;;1.63;;
68523;SDS011;55524;51.380;13.372;2023-04-24T02:55:18;2.10;;;1.95;;
68523;SDS011;55524;51.380;13.372;2023-04-24T02:57:45;3.22;;;1.60;;
68523;SDS011;55524;51.380;13.372;2023-04-24T03:00:11;2.55;;;1.50;;
68523;SDS011;55524;51.380;13.372;2023-04-24T03:02:38;1.40;;;1.30;;
68523;SDS011;55524;51.380;13.372;2023-04-24T03:05:04;1.95;;;1.35;;
68523;SDS011;55524;51.380;13.372;2023-04-24T03:07:32;1.52;;;1.42;;
68523;SDS011;55524;51.380;13.372;2023-04-24T03:09:58;1.48;;;1.20;;
68523;SDS011;55524;51.380;13.372;2023-04-24T03:12:25;1.33;;;1.20;;
68523;SDS011;55524;51.380;13.372;2023-04-24T03:14:51;1.40;;;1.30;;
68523;SDS011;55524;51.380;13.372;2023-04-24T03:17:17;1.00;;;1.00;;
68523;SDS011;55524;51.380;13.372;2023-04-24T03:19:43;1.40;;;1.05;;
68523;SDS011;55524;51.380;13.372;2023-04-24T03:22:10;1.90;;;1.10;;
68523;SDS011;55524;51.380;13.372;2023-04-24T03:24:37;1.88;;;1.10;;
68523;SDS011;55524;51.380;13.372;2023-04-24T03:27:03;1.30;;;1.20;;
68523;SDS011;55524;51.380;13.372;2023-04-24T03:29:29;1.63;;;1.20;;
68523;SDS011;55524;51.380;13.372;2023-04-24T03:31:56;1.67;;;1.38;;
68523;SDS011;55524;51.380;13.372;2023-04-24T03:34:22;1.50;;;1.40;;
68523;SDS011;55524;51.380;13.372;2023-04-24T03:36:48;1.75;;;1.20;;
68523;SDS011;55524;51.380;13.372;2023-04-24T03:39:15;1.23;;;1.10;;
68523;SDS011;55524;51.380;13.372;2023-04-24T03:41:41;1.20;;;1.20;;
68523;SDS011;55524;51.380;13.372;2023-04-24T03:44:07;2.53;;;1.30;;
68523;SDS011;55524;51.380;13.372;2023-04-24T03:46:33;3.33;;;1.25;;
68523;SDS011;55524;51.380;13.372;2023-04-24T03:49:00;1.40;;;1.27;;
68523;SDS011;55524;51.380;13.372;2023-04-24T03:51:26;1.67;;;1.42;;
68523;SDS011;55524;51.380;13.372;2023-04-24T03:53:53;1.88;;;1.48;;
68523;SDS011;55524;51.380;13.372;2023-04-24T03:56:19;1.42;;;1.27;;
68523;SDS011;55524;51.380;13.372;2023-04-24T03:58:45;2.47;;;1.13;;
68523;SDS011;55524;51.380;13.372;2023-04-24T04:01:12;1.52;;;1.30;;
68523;SDS011;55524;51.380;13.372;2023-04-24T04:03:40;3.65;;;1.38;;
68523;SDS011;55524;51.380;13.372;2023-04-24T04:06:07;1.40;;;1.30;;
68523;SDS011;55524;51.380;13.372;2023-04-24T04:08:36;2.40;;;1.33;;
68523;SDS011;55524;51.380;13.372;2023-04-24T04:11:02;2.25;;;1.45;;
68523;SDS011;55524;51.380;13.372;2023-04-24T04:13:28;2.70;;;1.33;;
68523;SDS011;55524;51.380;13.372;2023-04-24T04:15:55;2.75;;;1.40;;
68523;SDS011;55524;51.380;13.372;2023-04-24T04:18:21;1.48;;;1.38;;
68523;SDS011;55524;51.380;13.372;2023-04-24T04:20:47;1.10;;;1.10;;
68523;SDS011;55524;51.380;13.372;2023-04-24T04:23:13;2.47;;;1.45;;
68523;SDS011;55524;51.380;13.372;2023-04-24T04:25:40;3.28;;;1.48;;
68523;SDS011;55524;51.380;13.372;2023-04-24T04:28:06;3.75;;;1.23;;
68523;SDS011;55524;51.380;13.372;2023-04-24T04:30:32;1.42;;;1.33;;
68523;SDS011;55524;51.380;13.372;2023-04-24T04:32:59;4.82;;;1.33;;
68523;SDS011;55524;51.380;13.372;2023-04-24T04:35:26;1.30;;;1.20;;
68523;SDS011;55524;51.380;13.372;2023-04-24T04:37:52;2.22;;;1.50;;
68523;SDS011;55524;51.380;13.372;2023-04-24T04:40:18;1.38;;;1.30;;
68523;SDS011;55524;51.380;13.372;2023-04-24T04:42:45;2.88;;;1.30;;
68523;SDS011;55524;51.380;13.372;2023-04-24T04:45:12;2.45;;;1.13;;
68523;SDS011;55524;51.380;13.372;2023-04-24T04:47:41;1.50;;;1.40;;
68523;SDS011;55524;51.380;13.372;2023-04-24T04:50:08;1.40;;;1.30;;
68523;SDS011;55524;51.380;13.372;2023-04-24T04:52:35;1.40;;;1.30;;
68523;SDS011;55524;51.380;13.372;2023-04-24T04:55:02;1.17;;;1.10;;
68523;SDS011;55524;51.380;13.372;2023-04-24T04:57:28;1.60;;;1.50;;
68523;SDS011;55524;51.380;13.372;2023-04-24T04:59:55;1.83;;;1.20;;
68523;SDS011;55524;51.380;13.372;2023-04-24T05:02:21;1.52;;;1.42;;
68523;SDS011;55524;51.380;13.372;2023-04-24T05:04:48;2.53;;;1.38;;
68523;SDS011;55524;51.380;13.372;2023-04-24T05:07:14;2.78;;;1.10;;
68523;SDS011;55524;51.380;13.372;2023-04-24T05:09:40;1.33;;;1.23;;
68523;SDS011;55524;51.380;13.372;2023-04-24T05:12:07;2.33;;;1.20;;
68523;SDS011;55524;51.380;13.372;2023-04-24T05:14:33;1.40;;;1.30;;
68523;SDS011;55524;51.380;13.372;2023-04-24T05:16:59;1.20;;;1.10;;
68523;SDS011;55524;51.380;13.372;2023-04-24T05:19:26;4.32;;;1.45;;
68523;SDS011;55524;51.380;13.372;2023-04-24T05:21:52;2.47;;;1.25;;
68523;SDS011;55524;51.380;13.372;2023-04-24T05:24:18;1.30;;;1.23;;
68523;SDS011;55524;51.380;13.372;2023-04-24T05:26:44;1.80;;;1.40;;
68523;SDS011;55524;51.380;13.372;2023-04-24T05:29:12;4.57;;;1.33;;
68523;SDS011;55524;51.380;13.372;2023-04-24T05:31:38;1.63;;;1.10;;
68523;SDS011;55524;51.380;13.372;2023-04-24T05:34:05;4.40;;;1.25;;
68523;SDS011;55524;51.380;13.372;2023-04-24T05:36:31;1.08;;;1.08;;
68523;SDS011;55524;51.380;13.372;2023-04-24T05:38:57;0.98;;;0.98;;
68523;SDS011;55524;51.380;13.372;2023-04-24T05:41:24;2.83;;;1.45;;
68523;SDS011;55524;51.380;13.372;2023-04-24T05:43:50;20.17;;;1.92;;
68523;SDS011;55524;51.380;13.372;2023-04-24T05:46:17;4.28;;;1.35;;
68523;SDS011;55524;51.380;13.372;2023-04-24T05:48:43;2.55;;;1.10;;
68523;SDS011;55524;51.380;13.372;2023-04-24T05:51:09;6.47;;;1.38;;
68523;SDS011;55524;51.380;13.372;2023-04-24T05:53:35;2.90;;;1.30;;
68523;SDS011;55524;51.380;13.372;2023-04-24T05:56:02;7.35;;;1.50;;
68523;SDS011;55524;51.380;13.372;2023-04-24T05:58:28;2.33;;;1.30;;
68523;SDS011;55524;51.380;13.372;2023-04-24T06:00:54;6.38;;;1.40;;
68523;SDS011;55524;51.380;13.372;2023-04-24T06:03:22;2.75;;;1.35;;
68523;SDS011;55524;51.380;13.372;2023-04-24T06:05:49;1.27;;;1.13;;
68523;SDS011;55524;51.380;13.372;2023-04-24T06:08:16;2.72;;;1.58;;
68523;SDS011;55524;51.380;13.372;2023-04-24T06:10:42;5.63;;;1.45;;
68523;SDS011;55524;51.380;13.372;2023-04-24T06:13:09;4.45;;;1.35;;
68523;SDS011;55524;51.380;13.372;2023-04-24T06:15:36;4.32;;;1.40;;
68523;SDS011;55524;51.380;13.372;2023-04-24T06:18:03;3.50;;;1.63;;
68523;SDS011;55524;51.380;13.372;2023-04-24T06:20:29;25.88;;;3.20;;
68523;SDS011;55524;51.380;13.372;2023-04-24T06:22:55;6.53;;;1.25;;
68523;SDS011;55524;51.380;13.372;2023-04-24T06:25:24;3.40;;;1.20;;
68523;SDS011;55524;51.380;13.372;2023-04-24T06:27:51;2.28;;;1.13;;
68523;SDS011;55524;51.380;13.372;2023-04-24T06:30:18;2.17;;;1.05;;
68523;SDS011;55524;51.380;13.372;2023-04-24T06:32:45;7.35;;;1.83;;
68523;SDS011;55524;51.380;13.372;2023-04-24T06:35:11;2.72;;;1.02;;
68523;SDS011;55524;51.380;13.372;2023-04-24T06:37:41;5.65;;;1.52;;
68523;SDS011;55524;51.380;13.372;2023-04-24T06:40:08;4.70;;;1.40;;
68523;SDS011;55524;51.380;13.372;2023-04-24T06:42:35;3.08;;;1.40;;
68523;SDS011;55524;51.380;13.372;2023-04-24T06:45:01;2.45;;;1.00;;
68523;SDS011;55524;51.380;13.372;2023-04-24T06:47:28;2.10;;;1.08;;
68523;SDS011;55524;51.380;13.372;2023-04-24T06:49:54;1.05;;;1.05;;
68523;SDS011;55524;51.380;13.372;2023-04-24T06:52:21;3.70;;;1.02;;
68523;SDS011;55524;51.380;13.372;2023-04-24T06:54:47;2.50;;;0.80;;
68523;SDS011;55524;51.380;13.372;2023-04-24T06:57:14;1.75;;;0.98;;
68523;SDS011;55524;51.380;13.372;2023-04-24T06:59:41;4.60;;;1.08;;
68523;SDS011;55524;51.380;13.372;2023-04-24T07:02:07;2.15;;;1.13;;
68523;SDS011;55524;51.380;13.372;2023-04-24T07:04:34;1.33;;;0.88;;
68523;SDS011;55524;51.380;13.372;2023-04-24T07:07:00;4.78;;;1.00;;
68523;SDS011;55524;51.380;13.372;2023-04-24T07:09:27;4.97;;;1.08;;
68523;SDS011;55524;51.380;13.372;2023-04-24T07:11:53;1.83;;;0.82;;
68523;SDS011;55524;51.380;13.372;2023-04-24T07:14:21;6.03;;;0.98;;
68523;SDS011;55524;51.380;13.372;2023-04-24T07:16:48;4.75;;;1.00;;
68523;SDS011;55524;51.380;13.372;2023-04-24T07:19:14;2.55;;;1.10;;
68523;SDS011;55524;51.380;13.372;2023-04-24T07:21:40;3.17;;;0.80;;
68523;SDS011;55524;51.380;13.372;2023-04-24T07:24:07;2.00;;;0.90;;
68523;SDS011;55524;51.380;13.372;2023-04-24T07:26:37;1.83;;;1.07;;
68523;SDS011;55524;51.380;13.372;2023-04-24T07:29:05;1.65;;;1.15;;
68523;SDS011;55524;51.380;13.372;2023-04-24T07:31:32;1.35;;;0.90;;
68523;SDS011;55524;51.380;13.372;2023-04-24T07:33:58;4.43;;;1.10;;
68523;SDS011;55524;51.380;13.372;2023-04-24T07:36:25;2.35;;;0.80;;
68523;SDS011;55524;51.380;13.372;2023-04-24T07:38:51;1.10;;;0.98;;
68523;SDS011;55524;51.380;13.372;2023-04-24T07:41:19;1.35;;;0.88;;
68523;SDS011;55524;51.380;13.372;2023-04-24T07:43:45;2.95;;;0.95;;
68523;SDS011;55524;51.380;13.372;2023-04-24T07:46:12;0.93;;;0.80;;
68523;SDS011;55524;51.380;13.372;2023-04-24T07:48:38;2.67;;;0.90;;
68523;SDS011;55524;51.380;13.372;2023-04-24T07:51:04;1.60;;;0.90;;
68523;SDS011;55524;51.380;13.372;2023-04-24T07:53:31;0.90;;;0.90;;
68523;SDS011;55524;51.380;13.372;2023-04-24T07:55:57;3.30;;;0.80;;
68523;SDS011;55524;51.380;13.372;2023-04-24T07:58:23;4.00;;;0.98;;
68523;SDS011;55524;51.380;13.372;2023-04-24T08:00:50;1.08;;;0.85;;
68523;SDS011;55524;51.380;13.372;2023-04-24T08:03:16;0.70;;;0.70;;
68523;SDS011;55524;51.380;13.372;2023-04-24T08:05:44;0.95;;;0.90;;
68523;SDS011;55524;51.380;13.372;2023-04-24T08:08:11;5.63;;;1.13;;
68523;SDS011;55524;51.380;13.372;2023-04-24T08:10:37;5.53;;;0.93;;
68523;SDS011;55524;51.380;13.372;2023-04-24T08:13:03;2.42;;;0.80;;
68523;SDS011;55524;51.380;13.372;2023-04-24T08:15:30;1.48;;;0.90;;
68523;SDS011;55524;51.380;13.372;2023-04-24T08:17:56;1.45;;;1.00;;
68523;SDS011;55524;51.380;13.372;2023-04-24T08:20:23;2.05;;;1.27;;
68523;SDS011;55524;51.380;13.372;2023-04-24T08:22:49;3.03;;;0.80;;
68523;SDS011;55524;51.380;13.372;2023-04-24T08:25:15;4.28;;;0.77;;
68523;SDS011;55524;51.380;13.372;2023-04-24T08:27:42;1.92;;;0.70;;
68523;SDS011;55524;51.380;13.372;2023-04-24T08:30:09;0.80;;;0.80;;
68523;SDS011;55524;51.380;13.372;2023-04-24T08:32:36;2.05;;;1.00;;
68523;SDS011;55524;51.380;13.372;2023-04-24T08:35:02;1.17;;;0.88;;
68523;SDS011;55524;51.380;13.372;2023-04-24T08:37:29;3.40;;;0.82;;
68523;SDS011;55524;51.380;13.372;2023-04-24T08:39:55;1.42;;;0.70;;
68523;SDS011;55524;51.380;13.372;2023-04-24T08:42:22;2.40;;;0.90;;
68523;SDS011;55524;51.380;13.372;2023-04-24T08:44:49;1.25;;;1.00;;
68523;SDS011;55524;51.380;13.372;2023-04-24T08:47:16;1.65;;;0.90;;
68523;SDS011;55524;51.380;13.372;2023-04-24T08:49:43;1.95;;;0.80;;
68523;SDS011;55524;51.380;13.372;2023-04-24T08:52:10;1.17;;;0.77;;
68523;SDS011;55524;51.380;13.372;2023-04-24T08:54:38;1.92;;;1.00;;
68523;SDS011;55524;51.380;13.372;2023-04-24T08:57:08;0.95;;;0.85;;
68523;SDS011;55524;51.380;13.372;2023-04-24T08:59:36;2.22;;;0.93;;
68523;SDS011;55524;51.380;13.372;2023-04-24T09:02:04;2.63;;;0.70;;
68523;SDS011;55524;51.380;13.372;2023-04-24T09:04:31;2.22;;;0.90;;
68523;SDS011;55524;51.380;13.372;2023-04-24T09:07:00;0.90;;;0.70;;
68523;SDS011;55524;51.380;13.372;2023-04-24T09:09:28;2.92;;;0.80;;
68523;SDS011;55524;51.380;13.372;2023-04-24T09:11:56;3.08;;;0.90;;
68523;SDS011;55524;51.380;13.372;2023-04-24T09:14:23;1.02;;;0.80;;
68523;SDS011;55524;51.380;13.372;2023-04-24T09:16:50;1.30;;;0.80;;
68523;SDS011;55524;51.380;13.372;2023-04-24T09:19:16;2.53;;;0.80;;
68523;SDS011;55524;51.380;13.372;2023-04-24T09:21:45;5.57;;;1.20;;
68523;SDS011;55524;51.380;13.372;2023-04-24T09:24:16;2.00;;;0.90;;
68523;SDS011;55524;51.380;13.372;2023-04-24T09:26:43;4.68;;;0.90;;
68523;SDS011;55524;51.380;13.372;2023-04-24T09:29:16;2.85;;;0.80;;
68523;SDS011;55524;51.380;13.372;2023-04-24T09:31:44;1.42;;;0.80;;
68523;SDS011;55524;51.380;13.372;2023-04-24T09:34:11;1.58;;;1.00;;
68523;SDS011;55524;51.380;13.372;2023-04-24T09:36:46;2.40;;;0.80;;
68523;SDS011;55524;51.380;13.372;2023-04-24T09:39:14;1.05;;;0.90;;
68523;SDS011;55524;51.380;13.372;2023-04-24T09:41:45;4.72;;;1.10;;
68523;SDS011;55524;51.380;13.372;2023-04-24T09:44:14;2.08;;;1.02;;
68523;SDS011;55524;51.380;13.372;2023-04-24T09:46:42;4.38;;;0.90;;
68523;SDS011;55524;51.380;13.372;2023-04-24T09:49:13;2.50;;;0.82;;
68523;SDS011;55524;51.380;13.372;2023-04-24T09:51:41;0.70;;;0.70;;
68523;SDS011;55524;51.380;13.372;2023-04-24T09:54:14;2.60;;;0.90;;
68523;SDS011;55524;51.380;13.372;2023-04-24T09:56:46;0.93;;;0.80;;
68523;SDS011;55524;51.380;13.372;2023-04-24T09:59:19;1.42;;;1.00;;
68523;SDS011;55524;51.380;13.372;2023-04-24T10:01:46;1.35;;;0.82;;
68523;SDS011;55524;51.380;13.372;2023-04-24T10:04:18;2.97;;;0.98;;
68523;SDS011;55524;51.380;13.372;2023-04-24T10:06:45;1.20;;;0.82;;
68523;SDS011;55524;51.380;13.372;2023-04-24T10:09:14;1.35;;;0.80;;
68523;SDS011;55524;51.380;13.372;2023-04-24T10:11:42;2.83;;;1.60;;
68523;SDS011;55524;51.380;13.372;2023-04-24T10:14:13;1.88;;;0.88;;
68523;SDS011;55524;51.380;13.372;2023-04-24T10:16:45;2.78;;;1.00;;
68523;SDS011;55524;51.380;13.372;2023-04-24T10:19:13;1.35;;;0.93;;
68523;SDS011;55524;51.380;13.372;2023-04-24T10:21:41;1.10;;;1.00;;
68523;SDS011;55524;51.380;13.372;2023-04-24T10:24:17;1.23;;;0.57;;
68523;SDS011;55524;51.380;13.372;2023-04-24T10:26:47;2.20;;;0.65;;
68523;SDS011;55524;51.380;13.372;2023-04-24T10:29:14;1.25;;;0.70;;
68523;SDS011;55524;51.380;13.372;2023-04-24T10:31:42;2.15;;;0.70;;
68523;SDS011;55524;51.380;13.372;2023-04-24T10:34:10;0.88;;;0.80;;
68523;SDS011;55524;51.380;13.372;2023-04-24T10:36:38;2.55;;;0.75;;
68523;SDS011;55524;51.380;13.372;2023-04-24T10:39:15;5.40;;;0.95;;
68523;SDS011;55524;51.380;13.372;2023-04-24T10:41:43;3.97;;;0.88;;
68523;SDS011;55524;51.380;13.372;2023-04-24T10:44:14;0.98;;;0.73;;
68523;SDS011;55524;51.380;13.372;2023-04-24T10:46:45;0.70;;;0.70;;
68523;SDS011;55524;51.380;13.372;2023-04-24T10:49:17;2.58;;;0.70;;
68523;SDS011;55524;51.380;13.372;2023-04-24T10:51:54;8.65;;;1.10;;
68523;SDS011;55524;51.380;13.372;2023-04-24T10:54:28;7.25;;;0.90;;
68523;SDS011;55524;51.380;13.372;2023-04-24T10:59:45;2.22;;;0.70;;
68523;SDS011;55524;51.380;13.372;2023-04-24T11:02:15;2.30;;;0.68;;
68523;SDS011;55524;51.380;13.372;2023-04-24T11:04:43;1.13;;;0.70;;
68523;SDS011;55524;51.380;13.372;2023-04-24T11:07:12;2.70;;;0.70;;
68523;SDS011;55524;51.380;13.372;2023-04-24T11:09:38;1.58;;;0.68;;
68523;SDS011;55524;51.380;13.372;2023-04-24T11:12:08;0.70;;;0.60;;
68523;SDS011;55524;51.380;13.372;2023-04-24T11:17:34;0.68;;;0.68;;
68523;SDS011;55524;51.380;13.372;2023-04-24T11:20:06;2.67;;;0.70;;
68523;SDS011;55524;51.380;13.372;2023-04-24T11:22:34;5.10;;;0.80;;
68523;SDS011;55524;51.380;13.372;2023-04-24T11:25:02;1.52;;;0.77;;
68523;SDS011;55524;51.380;13.372;2023-04-24T11:27:38;3.15;;;0.77;;
68523;SDS011;55524;51.380;13.372;2023-04-24T11:30:06;0.70;;;0.70;;
68523;SDS011;55524;51.380;13.372;2023-04-24T11:35:04;1.50;;;0.73;;
68523;SDS011;55524;51.380;13.372;2023-04-24T11:40:02;2.70;;;0.50;;
68523;SDS011;55524;51.380;13.372;2023-04-24T11:43:03;0.50;;;0.50;;
68523;SDS011;55524;51.380;13.372;2023-04-24T11:45:26;3.40;;;0.70;;
68523;SDS011;55524;51.380;13.372;2023-04-24T11:47:53;1.88;;;1.15;;
68523;SDS011;55524;51.380;13.372;2023-04-24T11:50:21;1.17;;;0.60;;
68523;SDS011;55524;51.380;13.372;2023-04-24T11:52:50;0.93;;;0.70;;
68523;SDS011;55524;51.380;13.372;2023-04-24T11:57:47;0.70;;;0.60;;
68523;SDS011;55524;51.380;13.372;2023-04-24T12:00:15;3.22;;;0.80;;
68523;SDS011;55524;51.380;13.372;2023-04-24T12:02:42;0.50;;;0.50;;
68523;SDS011;55524;51.380;13.372;2023-04-24T12:05:09;1.15;;;0.55;;
68523;SDS011;55524;51.380;13.372;2023-04-24T12:07:44;2.50;;;0.60;;
68523;SDS011;55524;51.380;13.372;2023-04-24T12:10:10;2.72;;;0.70;;
68523;SDS011;55524;51.380;13.372;2023-04-24T12:12:37;1.00;;;0.60;;
68523;SDS011;55524;51.380;13.372;2023-04-24T12:15:07;1.00;;;0.90;;
68523;SDS011;55524;51.380;13.372;2023-04-24T12:17:34;1.63;;;0.70;;
68523;SDS011;55524;51.380;13.372;2023-04-24T12:22:52;1.45;;;0.80;;
68523;SDS011;55524;51.380;13.372;2023-04-24T12:25:20;1.00;;;0.90;;
68523;SDS011;55524;51.380;13.372;2023-04-24T12:27:55;0.88;;;0.80;;
68523;SDS011;55524;51.380;13.372;2023-04-24T12:30:27;6.93;;;0.88;;
68523;SDS011;55524;51.380;13.372;2023-04-24T12:32:56;0.60;;;0.60;;
68523;SDS011;55524;51.380;13.372;2023-04-24T12:35:25;0.60;;;0.60;;
68523;SDS011;55524;51.380;13.372;2023-04-24T12:37:53;1.63;;;0.80;;
68523;SDS011;55524;51.380;13.372;2023-04-24T12:40:20;1.02;;;0.88;;
68523;SDS011;55524;51.380;13.372;2023-04-24T12:42:50;0.70;;;0.70;;
68523;SDS011;55524;51.380;13.372;2023-04-24T12:45:18;2.05;;;0.70;;
68523;SDS011;55524;51.380;13.372;2023-04-24T12:47:45;1.38;;;0.80;;
68523;SDS011;55524;51.380;13.372;2023-04-24T12:50:12;4.13;;;0.70;;
68523;SDS011;55524;51.380;13.372;2023-04-24T12:52:40;2.88;;;0.63;;
68523;SDS011;55524;51.380;13.372;2023-04-24T12:55:07;2.08;;;0.88;;
68523;SDS011;55524;51.380;13.372;2023-04-24T12:57:35;1.83;;;0.80;;
68523;SDS011;55524;51.380;13.372;2023-04-24T13:00:03;2.78;;;0.73;;
68523;SDS011;55524;51.380;13.372;2023-04-24T13:02:30;2.55;;;0.82;;
68523;SDS011;55524;51.380;13.372;2023-04-24T13:04:58;2.22;;;0.80;;
68523;SDS011;55524;51.380;13.372;2023-04-24T13:07:25;0.70;;;0.70;;
68523;SDS011;55524;51.380;13.372;2023-04-24T13:09:52;2.47;;;0.70;;
68523;SDS011;55524;51.380;13.372;2023-04-24T13:12:20;2.35;;;0.82;;
68523;SDS011;55524;51.380;13.372;2023-04-24T13:14:48;2.00;;;0.80;;
68523;SDS011;55524;51.380;13.372;2023-04-24T13:17:15;2.05;;;0.73;;
68523;SDS011;55524;51.380;13.372;2023-04-24T13:19:42;0.80;;;0.80;;
68523;SDS011;55524;51.380;13.372;2023-04-24T13:22:10;1.95;;;0.90;;
68523;SDS011;55524;51.380;13.372;2023-04-24T13:24:37;0.80;;;0.80;;
68523;SDS011;55524;51.380;13.372;2023-04-24T13:27:07;0.70;;;0.70;;
68523;SDS011;55524;51.380;13.372;2023-04-24T13:29:34;3.38;;;0.75;;
68523;SDS011;55524;51.380;13.372;2023-04-24T13:32:02;0.98;;;0.70;;
68523;SDS011;55524;51.380;13.372;2023-04-24T13:34:28;1.90;;;0.68;;
68523;SDS011;55524;51.380;13.372;2023-04-24T13:36:55;1.77;;;0.88;;
68523;SDS011;55524;51.380;13.372;2023-04-24T13:39:23;0.65;;;0.65;;
68523;SDS011;55524;51.380;13.372;2023-04-24T13:41:51;1.75;;;0.80;;
68523;SDS011;55524;51.380;13.372;2023-04-24T13:44:18;1.75;;;0.80;;
68523;SDS011;55524;51.380;13.372;2023-04-24T13:46:46;0.75;;;0.75;;
68523;SDS011;55524;51.380;13.372;2023-04-24T13:49:14;0.60;;;0.60;;
68523;SDS011;55524;51.380;13.372;2023-04-24T13:51:41;0.73;;;0.70;;
68523;SDS011;55524;51.380;13.372;2023-04-24T13:54:08;3.65;;;0.95;;
68523;SDS011;55524;51.380;13.372;2023-04-24T13:56:34;6.63;;;0.80;;
68523;SDS011;55524;51.380;13.372;2023-04-24T13:59:00;1.55;;;0.82;;
68523;SDS011;55524;51.380;13.372;2023-04-24T14:01:27;1.65;;;0.80;;
68523;SDS011;55524;51.380;13.372;2023-04-24T14:03:55;3.30;;;1.00;;
68523;SDS011;55524;51.380;13.372;2023-04-24T14:06:22;1.95;;;0.73;;
68523;SDS011;55524;51.380;13.372;2023-04-24T14:08:48;1.25;;;0.95;;
68523;SDS011;55524;51.380;13.372;2023-04-24T14:11:15;3.70;;;1.00;;
68523;SDS011;55524;51.380;13.372;2023-04-24T14:13:42;2.90;;;0.80;;
68523;SDS011;55524;51.380;13.372;2023-04-24T14:16:12;3.55;;;1.02;;
68523;SDS011;55524;51.380;13.372;2023-04-24T14:18:39;4.13;;;0.98;;
68523;SDS011;55524;51.380;13.372;2023-04-24T14:21:05;1.40;;;0.90;;
68523;SDS011;55524;51.380;13.372;2023-04-24T14:23:32;0.90;;;0.80;;
68523;SDS011;55524;51.380;13.372;2023-04-24T14:25:59;0.90;;;0.90;;
68523;SDS011;55524;51.380;13.372;2023-04-24T14:28:25;0.85;;;0.80;;
68523;SDS011;55524;51.380;13.372;2023-04-24T14:30:52;3.30;;;1.20;;
68523;SDS011;55524;51.380;13.372;2023-04-24T14:33:19;2.47;;;0.93;;
68523;SDS011;55524;51.380;13.372;2023-04-24T14:35:45;1.00;;;0.80;;
68523;SDS011;55524;51.380;13.372;2023-04-24T14:38:12;1.45;;;0.70;;
68523;SDS011;55524;51.380;13.372;2023-04-24T14:40:40;2.10;;;0.80;;
68523;SDS011;55524;51.380;13.372;2023-04-24T14:43:06;0.70;;;0.70;;
68523;SDS011;55524;51.380;13.372;2023-04-24T14:45:33;2.13;;;0.70;;
68523;SDS011;55524;51.380;13.372;2023-04-24T14:47:59;0.80;;;0.80;;
68523;SDS011;55524;51.380;13.372;2023-04-24T14:50:26;2.20;;;1.00;;